首页
METAR-TAF:

METAR-TAF

机场 :

Peterborough, 安大略省, 加拿大

纬度: 44-14N, 经度: 078-22W, 海拔: 191米

当前天气观测

该预报发布于46分钟前的22:00 UTC
风速16节,风向西转西北,有时为25节阵风
温度 26°C
湿度 54%
气压 1015 hPa
能見度: 14.5公里
少量云层高于8000英尺

METAR: CYPQ 262200Z AUTO 29016G25KT 9SM FEW080 26/16 A2997 RMK SLP149 DENSITY ALT 1900FT

时间: 18:46 (22:46 UTC)

预报

该预报发布于3小时和6分钟前的19:40 UTC
预报有效从26日的 20点(UTC)到 27日的 02点(UTC)
风速10节,风向西转西北
能見度: 10公里
散云层高于8000英尺
短暂存在
从 26日的 20点(UTC)到 26日的 21点(UTC)
能見度: 10公里
多云层高于8000英尺, 积雨云.
附近有雷暴
从 26日的 2300点(UTC)
风速10节,风向西转西北
能見度: 10公里
天空无云

TAF: CYPQ 261940Z 2620/2702 30010KT P6SM SCT080 TEMPO 2620/2621 P6SM VCTS BKN080CB FM262300 29010KT P6SM SKC RMK FCST BASED ON AUTO OBS. NXT FCST WILL BE ISSUED AT 270945Z

超过4000个机场的气象观测和天气预报(METAR&TAF报告)。

可查询的气象台以黄色和红色小点在地图上表示。

将鼠标移到小点上方,可查看气象台名称。

然后点击查看天气观测和预报。

如需切换地图:点击带黑十字的绿色按钮放大地图;点击带横线的绿色按钮缩小地图;或者点击绿色箭头查看邻近地区的地图。


METAR-TAF: